Time,TemperatureF,DewpointF,PressureIn,WindDirection,WindDirectionDegrees,WindSpeedMPH,WindSpeedGustMPH,Humidity,HourlyPrecipIn,Conditions,Clouds,dailyrainin,SoftwareType,DateUTC
2013-08-08 00:00:00,69.4,62.2,30.01,ESE,108,2.0,2.0,78,0.00,,,0.00,Wunderground v.1.15,2013-08-08 04:00:00,
2013-08-08 00:10:00,69.4,62.6,30.01,South,171,2.0,4.0,79,0.00,,,0.00,Wunderground v.1.15,2013-08-08 04:10:00,
2013-08-08 00:20:00,69.4,62.6,30.01,SE,145,2.0,2.0,79,0.00,,,0.00,Wunderground v.1.15,2013-08-08 04:20:00,
2013-08-08 00:30:00,69.4,62.6,30.00,SE,131,2.0,2.0,79,0.00,,,0.00,Wunderground v.1.15,2013-08-08 04:30:00,
2013-08-08 00:40:00,69.4,62.6,30.00,SE,137,3.0,7.0,79,0.00,,,0.00,Wunderground v.1.15,2013-08-08 04:40:00,
2013-08-08 00:50:00,69.6,62.8,30.00,SE,126,2.0,4.0,79,0.00,,,0.00,Wunderground v.1.15,2013-08-08 04:50:00,
2013-08-08 01:00:00,69.6,63.2,30.00,SE,126,2.0,2.0,80,0.00,,,0.00,Wunderground v.1.15,2013-08-08 05:00:00,
2013-08-08 01:10:00,69.6,63.2,30.00,SE,146,3.0,10.0,80,0.00,,,0.00,Wunderground v.1.15,2013-08-08 05:10:00,
2013-08-08 01:20:00,69.6,63.2,29.99,East,101,2.0,2.0,80,0.00,,,0.00,Wunderground v.1.15,2013-08-08 05:20:00,
2013-08-08 01:30:00,69.6,63.5,29.99,South,174,2.0,10.0,81,0.00,,,0.00,Wunderground v.1.15,2013-08-08 05:30:00,
2013-08-08 01:40:00,69.6,63.5,29.99,SE,126,3.0,10.0,81,0.00,,,0.00,Wunderground v.1.15,2013-08-08 05:40:00,
2013-08-08 01:50:00,69.6,63.5,29.99,SE,126,3.0,3.0,81,0.00,,,0.00,Wunderground v.1.15,2013-08-08 05:50:00,
2013-08-08 02:00:00,69.6,63.9,29.99,SE,131,2.0,2.0,82,0.00,,,0.00,Wunderground v.1.15,2013-08-08 06:00:00,
2013-08-08 02:10:00,69.4,63.7,29.99,SE,139,2.0,10.0,82,0.00,,,0.00,Wunderground v.1.15,2013-08-08 06:10:00,
2013-08-08 02:20:00,69.6,63.9,29.99,ESE,105,3.0,10.0,82,0.00,,,0.00,Wunderground v.1.15,2013-08-08 06:20:00,
2013-08-08 02:30:00,69.6,63.9,29.99,SSE,154,3.0,3.0,82,0.00,,,0.00,Wunderground v.1.15,2013-08-08 06:30:00,
2013-08-08 02:40:00,69.8,64.4,29.99,ESE,121,4.0,4.0,83,0.00,,,0.00,Wunderground v.1.15,2013-08-08 06:40:00,
2013-08-08 02:50:00,69.6,64.2,29.98,East,99,2.0,10.0,83,0.00,,,0.00,Wunderground v.1.15,2013-08-08 06:50:00,
2013-08-08 03:00:00,69.6,64.5,29.98,SE,140,3.0,10.0,84,0.00,,,0.00,Wunderground v.1.15,2013-08-08 07:00:00,
2013-08-08 03:10:00,69.6,64.5,29.98,ESE,105,2.0,10.0,84,0.00,,,0.00,Wunderground v.1.15,2013-08-08 07:10:00,
2013-08-08 03:20:00,69.6,64.9,29.97,SE,137,2.0,10.0,85,0.00,,,0.00,Wunderground v.1.15,2013-08-08 07:20:00,
2013-08-08 03:30:00,69.6,64.9,29.97,ESE,121,3.0,10.0,85,0.00,,,0.00,Wunderground v.1.15,2013-08-08 07:30:00,
2013-08-08 03:40:00,69.4,64.7,29.97,SSE,151,2.0,10.0,85,0.00,,,0.00,Wunderground v.1.15,2013-08-08 07:40:00,
2013-08-08 03:50:00,69.6,64.9,29.98,ESE,112,3.0,10.0,85,0.00,,,0.00,Wunderground v.1.15,2013-08-08 07:50:00,
2013-08-08 04:00:00,69.6,64.9,29.97,East,91,4.0,10.0,85,0.00,,,0.00,Wunderground v.1.15,2013-08-08 08:00:00,
2013-08-08 04:10:00,69.4,65.0,29.97,ESE,112,3.0,3.0,86,0.00,,,0.00,Wunderground v.1.15,2013-08-08 08:10:00,
2013-08-08 04:20:00,69.4,65.0,29.96,ESE,112,2.0,10.0,86,0.00,,,0.00,Wunderground v.1.15,2013-08-08 08:20:00,
2013-08-08 04:30:00,69.6,65.2,29.96,ESE,116,2.0,2.0,86,0.00,,,0.00,Wunderground v.1.15,2013-08-08 08:30:00,
2013-08-08 04:40:00,69.6,65.2,29.96,ESE,121,1.0,1.0,86,0.00,,,0.00,Wunderground v.1.15,2013-08-08 08:40:00,
2013-08-08 04:50:00,69.6,65.2,29.96,ESE,121,2.0,10.0,86,0.00,,,0.00,Wunderground v.1.15,2013-08-08 08:50:00,
2013-08-08 05:00:00,69.6,65.2,29.96,ESE,114,2.0,2.0,86,0.00,,,0.00,Wunderground v.1.15,2013-08-08 09:00:00,
2013-08-08 05:10:00,69.6,65.2,29.96,SSE,156,0.0,10.0,86,0.00,,,0.00,Wunderground v.1.15,2013-08-08 09:10:00,
2013-08-08 05:20:00,69.4,65.4,29.96,SE,135,1.0,10.0,87,0.00,,,0.00,Wunderground v.1.15,2013-08-08 09:20:00,
2013-08-08 05:30:00,69.6,65.2,29.97,ESE,121,1.0,1.0,86,0.00,,,0.00,Wunderground v.1.15,2013-08-08 09:30:00,
2013-08-08 05:40:00,69.6,65.2,29.97,SE,126,2.0,2.0,86,0.00,,,0.00,Wunderground v.1.15,2013-08-08 09:40:00,
2013-08-08 05:50:00,69.6,65.6,29.97,ESE,116,0.0,10.0,87,0.00,,,0.00,Wunderground v.1.15,2013-08-08 09:50:00,
2013-08-08 06:00:00,69.4,65.4,29.97,SE,144,0.0,10.0,87,0.00,,,0.00,Wunderground v.1.15,2013-08-08 10:00:00,
2013-08-08 06:10:00,69.3,65.6,29.97,SE,137,1.0,1.0,88,0.00,,,0.00,Wunderground v.1.15,2013-08-08 10:10:00,
2013-08-08 06:20:00,69.3,65.9,29.98,SSE,151,1.0,1.0,89,0.00,,,0.00,Wunderground v.1.15,2013-08-08 10:20:00,
2013-08-08 06:30:00,69.1,65.7,29.97,SSE,151,0.0,0.0,89,0.00,,,0.00,Wunderground v.1.15,2013-08-08 10:30:00,
2013-08-08 06:40:00,69.1,66.0,29.97,SE,131,1.0,1.0,90,0.00,,,0.00,Wunderground v.1.15,2013-08-08 10:40:00,
2013-08-08 06:50:00,68.9,65.8,29.99,ESE,121,0.0,0.0,90,0.00,,,0.00,Wunderground v.1.15,2013-08-08 10:50:00,
2013-08-08 07:00:00,69.3,66.6,29.98,SE,131,1.0,1.0,91,0.00,,,0.00,Wunderground v.1.15,2013-08-08 11:00:00,
2013-08-08 07:10:00,69.6,66.5,29.98,ESE,117,1.0,9.0,90,0.00,,,0.00,Wunderground v.1.15,2013-08-08 11:10:00,
2013-08-08 07:20:00,69.6,66.5,29.99,East,95,1.0,1.0,90,0.00,,,0.00,Wunderground v.1.15,2013-08-08 11:20:00,
2013-08-08 07:30:00,69.6,66.2,29.99,South,170,1.0,9.0,89,0.00,,,0.00,Wunderground v.1.15,2013-08-08 11:30:00,
2013-08-08 07:40:00,69.8,66.4,29.99,ESE,116,2.0,2.0,89,0.00,,,0.00,Wunderground v.1.15,2013-08-08 11:40:00,
2013-08-08 07:50:00,69.9,66.5,29.99,ESE,102,2.0,9.0,89,0.00,,,0.00,Wunderground v.1.15,2013-08-08 11:50:00,
2013-08-08 08:00:00,70.1,66.7,29.99,SE,126,2.0,9.0,89,0.00,,,0.00,Wunderground v.1.15,2013-08-08 12:00:00,
2013-08-08 08:10:00,70.3,66.9,29.99,ESE,108,1.0,9.0,89,0.00,,,0.00,Wunderground v.1.15,2013-08-08 12:10:00,
2013-08-08 08:20:00,70.8,67.1,29.99,SE,131,2.0,2.0,88,0.00,,,0.00,Wunderground v.1.15,2013-08-08 12:20:00,
2013-08-08 08:30:00,71.5,67.8,30.00,SE,141,1.0,9.0,88,0.00,,,0.00,Wunderground v.1.15,2013-08-08 12:30:00,
2013-08-08 08:40:00,71.8,67.0,30.00,SE,135,1.0,1.0,85,0.00,,,0.00,Wunderground v.1.15,2013-08-08 12:40:00,
2013-08-08 08:50:00,72.0,67.6,30.00,SSE,156,1.0,9.0,86,0.00,,,0.00,Wunderground v.1.15,2013-08-08 12:50:00,
2013-08-08 09:00:00,72.1,68.0,30.00,ESE,121,4.0,4.0,87,0.00,,,0.00,Wunderground v.1.15,2013-08-08 13:00:00,
2013-08-08 09:10:00,72.3,67.5,30.00,SE,135,3.0,9.0,85,0.00,,,0.00,Wunderground v.1.15,2013-08-08 13:10:00,
2013-08-08 09:20:00,72.5,67.7,30.00,SE,126,1.0,9.0,85,0.00,,,0.00,Wunderground v.1.15,2013-08-08 13:20:00,
2013-08-08 09:30:00,72.7,67.9,30.00,ESE,121,1.0,1.0,85,0.00,,,0.00,Wunderground v.1.15,2013-08-08 13:30:00,
2013-08-08 09:40:00,73.2,68.1,30.00,South,183,1.0,1.0,84,0.00,,,0.00,Wunderground v.1.15,2013-08-08 13:40:00,
2013-08-08 09:50:00,73.0,67.5,30.00,SSE,164,1.0,9.0,83,0.00,,,0.00,Wunderground v.1.15,2013-08-08 13:50:00,
2013-08-08 10:00:00,72.8,67.3,30.00,SE,126,1.0,9.0,83,0.00,,,0.00,Wunderground v.1.15,2013-08-08 14:00:00,
2013-08-08 10:10:00,72.3,67.5,30.00,SE,139,1.0,1.0,85,0.00,,,0.00,Wunderground v.1.15,2013-08-08 14:10:00,
2013-08-08 10:20:00,72.1,67.0,30.00,SE,131,1.0,1.0,84,0.00,,,0.00,Wunderground v.1.15,2013-08-08 14:20:00,
2013-08-08 10:30:00,72.1,67.3,30.00,SE,131,1.0,1.0,85,0.00,,,0.00,Wunderground v.1.15,2013-08-08 14:30:00,
2013-08-08 10:40:00,72.1,67.3,30.00,SE,144,1.0,1.0,85,0.00,,,0.00,Wunderground v.1.15,2013-08-08 14:40:00,
2013-08-08 10:50:00,72.3,67.9,30.01,SE,143,0.0,9.0,86,0.00,,,0.00,Wunderground v.1.15,2013-08-08 14:50:00,
2013-08-08 11:00:00,72.7,68.3,30.01,SE,144,0.0,9.0,86,0.00,,,0.00,Wunderground v.1.15,2013-08-08 15:00:00,
2013-08-08 11:10:00,73.2,68.8,30.01,SE,144,0.0,9.0,86,0.00,,,0.00,Wunderground v.1.15,2013-08-08 15:10:00,
2013-08-08 11:20:00,75.3,69.8,30.00,SSE,159,1.0,9.0,83,0.00,,,0.00,Wunderground v.1.15,2013-08-08 15:20:00,
2013-08-08 11:30:00,76.3,69.3,30.00,SE,126,3.0,3.0,79,0.00,,,0.00,Wunderground v.1.15,2013-08-08 15:30:00,
2013-08-08 11:40:00,76.0,68.3,30.00,SE,131,2.0,2.0,77,0.00,,,0.00,Wunderground v.1.15,2013-08-08 15:40:00,
2013-08-08 11:50:00,77.6,68.7,29.99,ENE,75,0.0,9.0,74,0.00,,,0.00,Wunderground v.1.15,2013-08-08 15:50:00,
2013-08-08 12:00:00,78.5,68.7,29.98,East,90,1.0,1.0,72,0.00,,,0.00,Wunderground v.1.15,2013-08-08 16:00:00,
2013-08-08 12:10:00,79.0,68.4,29.98,SE,126,1.0,1.0,70,0.00,,,0.00,Wunderground v.1.15,2013-08-08 16:10:00,
2013-08-08 12:20:00,79.8,67.4,29.97,ESE,121,1.0,3.0,66,0.00,,,0.00,Wunderground v.1.15,2013-08-08 16:20:00,
2013-08-08 12:30:00,80.3,67.9,29.97,South,183,2.0,2.0,66,0.00,,,0.00,Wunderground v.1.15,2013-08-08 16:30:00,
2013-08-08 12:40:00,79.8,67.4,29.97,SE,126,2.0,2.0,66,0.00,,,0.00,Wunderground v.1.15,2013-08-08 16:40:00,
2013-08-08 12:50:00,80.3,67.9,29.97,SSE,150,2.0,2.0,66,0.00,,,0.00,Wunderground v.1.15,2013-08-08 16:50:00,
2013-08-08 13:00:00,80.3,66.6,29.97,SE,131,2.0,2.0,63,0.00,,,0.00,Wunderground v.1.15,2013-08-08 17:00:00,
2013-08-08 13:10:00,80.1,69.4,29.97,East,93,2.0,2.0,70,0.00,,,0.00,Wunderground v.1.15,2013-08-08 17:10:00,
2013-08-08 13:20:00,79.8,68.7,29.97,SSE,151,2.0,2.0,69,0.00,,,0.00,Wunderground v.1.15,2013-08-08 17:20:00,
2013-08-08 13:30:00,79.4,67.5,29.97,ESE,113,2.0,2.0,67,0.00,,,0.00,Wunderground v.1.15,2013-08-08 17:30:00,
2013-08-08 13:40:00,79.6,69.4,29.97,SSE,158,2.0,2.0,71,0.00,,,0.00,Wunderground v.1.15,2013-08-08 17:40:00,
2013-08-08 13:50:00,79.2,69.0,29.98,ESE,112,1.0,1.0,71,0.00,,,0.00,Wunderground v.1.15,2013-08-08 17:50:00,
2013-08-08 14:00:00,78.3,68.1,29.98,East,87,1.0,1.0,71,0.00,,,0.00,Wunderground v.1.15,2013-08-08 18:00:00,
2013-08-08 14:10:00,78.8,69.8,29.98,ESE,111,2.0,2.0,74,0.00,,,0.00,Wunderground v.1.15,2013-08-08 18:10:00,
2013-08-08 14:20:00,80.3,69.6,29.99,ESE,107,1.0,8.0,70,0.00,,,0.00,Wunderground v.1.15,2013-08-08 18:20:00,
2013-08-08 14:30:00,80.1,69.4,29.98,SE,131,1.0,1.0,70,0.00,,,0.00,Wunderground v.1.15,2013-08-08 18:30:00,
2013-08-08 14:40:00,81.6,70.0,29.98,SE,126,1.0,8.0,68,0.00,,,0.00,Wunderground v.1.15,2013-08-08 18:40:00,
2013-08-08 14:50:00,82.8,70.7,29.97,SSW,210,0.0,8.0,67,0.00,,,0.00,Wunderground v.1.15,2013-08-08 18:50:00,
2013-08-08 15:00:00,82.0,68.6,29.97,ESE,121,2.0,8.0,64,0.00,,,0.00,Wunderground v.1.15,2013-08-08 19:00:00,
2013-08-08 15:10:00,81.1,68.2,29.97,SE,138,2.0,8.0,65,0.00,,,0.00,Wunderground v.1.15,2013-08-08 19:10:00,
2013-08-08 15:20:00,80.5,67.6,29.97,ESE,107,2.0,2.0,65,0.00,,,0.00,Wunderground v.1.15,2013-08-08 19:20:00,
2013-08-08 15:30:00,80.9,68.9,29.96,SE,126,1.0,1.0,67,0.00,,,0.00,Wunderground v.1.15,2013-08-08 19:30:00,
2013-08-08 15:40:00,81.8,68.9,29.96,SE,131,1.0,1.0,65,0.00,,,0.00,Wunderground v.1.15,2013-08-08 19:40:00,
2013-08-08 15:50:00,82.8,68.4,29.96,SE,131,1.0,8.0,62,0.00,,,0.00,Wunderground v.1.15,2013-08-08 19:50:00,
2013-08-08 16:00:00,83.4,69.5,29.96,ESE,104,0.0,8.0,63,0.00,,,0.00,Wunderground v.1.15,2013-08-08 20:00:00,
2013-08-08 16:10:00,82.8,68.9,29.96,SE,145,1.0,1.0,63,0.00,,,0.00,Wunderground v.1.15,2013-08-08 20:10:00,
2013-08-08 16:20:00,82.0,69.5,29.96,SSE,152,1.0,1.0,66,0.00,,,0.00,Wunderground v.1.15,2013-08-08 20:20:00,
2013-08-08 16:30:00,82.2,71.0,29.95,SSE,167,1.0,8.0,69,0.00,,,0.00,Wunderground v.1.15,2013-08-08 20:30:00,
2013-08-08 16:40:00,81.6,70.9,29.95,ENE,77,2.0,2.0,70,0.00,,,0.00,Wunderground v.1.15,2013-08-08 20:40:00,
2013-08-08 16:50:00,82.2,69.3,29.95,SSE,166,1.0,1.0,65,0.00,,,0.00,Wunderground v.1.15,2013-08-08 20:50:00,
2013-08-08 17:00:00,82.4,70.3,29.94,SSE,156,1.0,1.0,67,0.00,,,0.00,Wunderground v.1.15,2013-08-08 21:00:00,
2013-08-08 17:10:00,81.4,70.2,29.94,ESE,104,1.0,8.0,69,0.00,,,0.00,Wunderground v.1.15,2013-08-08 21:10:00,
2013-08-08 17:20:00,81.1,69.1,29.94,ESE,102,2.0,8.0,67,0.00,,,0.00,Wunderground v.1.15,2013-08-08 21:20:00,
2013-08-08 17:30:00,80.7,69.6,29.94,NW,316,1.0,1.0,69,0.00,,,0.00,Wunderground v.1.15,2013-08-08 21:30:00,
2013-08-08 17:40:00,79.0,70.4,29.94,SE,139,0.0,8.0,75,0.00,,,0.00,Wunderground v.1.15,2013-08-08 21:40:00,
2013-08-08 17:50:00,77.4,70.0,29.95,West,260,0.0,8.0,78,0.00,,,0.00,Wunderground v.1.15,2013-08-08 21:50:00,
2013-08-08 18:20:00,75.8,71.3,29.95,ESE,113,0.0,0.0,86,0.00,,,0.00,Wunderground v.1.15,2013-08-08 22:20:00,
2013-08-08 18:30:00,76.0,71.8,29.95,NNW,334,0.0,0.0,87,0.00,,,0.00,Wunderground v.1.15,2013-08-08 22:30:00,
2013-08-08 18:40:00,75.8,71.0,29.95,WNW,283,0.0,0.0,85,0.00,,,0.00,Wunderground v.1.15,2013-08-08 22:40:00,
2013-08-08 18:50:00,76.0,71.8,29.95,WNW,283,0.0,0.0,87,0.00,,,0.00,Wunderground v.1.15,2013-08-08 22:50:00,
2013-08-08 19:00:00,76.3,72.5,29.94,WNW,283,0.0,0.0,88,0.00,,,0.00,Wunderground v.1.15,2013-08-08 23:00:00,
2013-08-08 19:10:00,76.0,71.5,29.94,WNW,283,0.0,6.0,86,0.00,,,0.00,Wunderground v.1.15,2013-08-08 23:10:00,
2013-08-08 19:20:00,75.3,70.8,29.95,WNW,283,0.0,6.0,86,0.00,,,0.00,Wunderground v.1.15,2013-08-08 23:20:00,
2013-08-08 19:30:00,74.7,70.6,29.95,ESE,110,1.0,1.0,87,0.00,,,0.00,Wunderground v.1.15,2013-08-08 23:30:00,
2013-08-08 19:40:00,74.4,69.9,29.95,SE,126,1.0,1.0,86,0.00,,,0.00,Wunderground v.1.15,2013-08-08 23:40:00,
2013-08-08 19:50:00,74.2,69.4,29.95,SE,135,1.0,1.0,85,0.00,,,0.00,Wunderground v.1.15,2013-08-08 23:50:00,
2013-08-08 20:00:00,74.2,69.4,29.95,ESE,121,0.0,6.0,85,0.00,,,0.00,Wunderground v.1.15,2013-08-09 00:00:00,
2013-08-08 20:10:00,74.0,69.2,29.95,ESE,114,0.0,6.0,85,0.00,,,0.00,Wunderground v.1.15,2013-08-09 00:10:00,
2013-08-08 20:20:00,73.9,69.1,29.95,ESE,121,0.0,6.0,85,0.00,,,0.00,Wunderground v.1.15,2013-08-09 00:20:00,
2013-08-08 20:30:00,73.5,69.1,29.95,SE,135,0.0,6.0,86,0.00,,,0.00,Wunderground v.1.15,2013-08-09 00:30:00,
2013-08-08 20:40:00,73.5,68.7,29.95,SE,135,1.0,1.0,85,0.00,,,0.00,Wunderground v.1.15,2013-08-09 00:40:00,
2013-08-08 20:50:00,73.7,68.2,29.97,ESE,114,0.0,6.0,83,0.00,,,0.00,Wunderground v.1.15,2013-08-09 00:50:00,
2013-08-08 21:00:00,73.7,68.2,29.96,East,99,0.0,6.0,83,0.00,,,0.00,Wunderground v.1.15,2013-08-09 01:00:00,
2013-08-08 21:10:00,73.5,68.0,29.96,SE,126,0.0,6.0,83,0.00,,,0.00,Wunderground v.1.15,2013-08-09 01:10:00,
2013-08-08 21:20:00,73.7,68.2,29.97,ESE,121,0.0,6.0,83,0.00,,,0.00,Wunderground v.1.15,2013-08-09 01:20:00,
2013-08-08 21:30:00,73.5,68.0,29.97,ESE,121,0.0,6.0,83,0.00,,,0.00,Wunderground v.1.15,2013-08-09 01:30:00,
2013-08-08 21:40:00,73.5,68.4,29.97,East,89,1.0,1.0,84,0.00,,,0.00,Wunderground v.1.15,2013-08-09 01:40:00,
2013-08-08 21:50:00,73.5,68.0,29.96,ESE,114,0.0,6.0,83,0.00,,,0.00,Wunderground v.1.15,2013-08-09 01:50:00,
2013-08-08 22:00:00,73.7,68.2,29.97,SSE,161,0.0,6.0,83,0.00,,,0.00,Wunderground v.1.15,2013-08-09 02:00:00,
2013-08-08 22:10:00,73.7,68.2,29.97,SSE,161,0.0,6.0,83,0.00,,,0.00,Wunderground v.1.15,2013-08-09 02:10:00,
2013-08-08 22:20:00,73.3,68.2,29.95,ESE,104,1.0,1.0,84,0.00,,,0.00,Wunderground v.1.15,2013-08-09 02:20:00,
2013-08-08 22:30:00,73.2,68.4,29.96,East,94,1.0,6.0,85,0.00,,,0.00,Wunderground v.1.15,2013-08-09 02:30:00,
2013-08-08 22:40:00,73.2,68.4,29.96,ESE,121,0.0,6.0,85,0.00,,,0.00,Wunderground v.1.15,2013-08-09 02:40:00,
2013-08-08 22:50:00,73.5,68.7,29.96,ESE,121,1.0,1.0,85,0.00,,,0.00,Wunderground v.1.15,2013-08-09 02:50:00,
2013-08-08 23:00:00,74.0,68.9,29.95,SE,136,1.0,1.0,84,0.00,,,0.00,Wunderground v.1.15,2013-08-09 03:00:00,
2013-08-08 23:10:00,73.7,68.9,29.95,East,87,0.0,6.0,85,0.00,,,0.00,Wunderground v.1.15,2013-08-09 03:10:00,
2013-08-08 23:20:00,73.5,68.7,29.95,SE,140,1.0,6.0,85,0.00,,,0.00,Wunderground v.1.15,2013-08-09 03:20:00,
2013-08-08 23:30:00,73.5,68.7,29.95,SE,131,0.0,6.0,85,0.00,,,0.00,Wunderground v.1.15,2013-08-09 03:30:00,
2013-08-08 23:40:00,73.2,68.8,29.95,SE,146,0.0,6.0,86,0.00,,,0.00,Wunderground v.1.15,2013-08-09 03:40:00,
2013-08-08 23:50:00,73.2,68.8,29.94,SSE,150,0.0,6.0,86,0.00,,,0.00,Wunderground v.1.15,2013-08-09 03:50:00,